Time;durP1;ratioP1;P1;durP2;ratioP2;P2;SDS_P1;SDS_P2;PMS_P1;PMS_P2;Temp;Humidity;BMP_temperature;BMP_pressure;BME280_temperature;BME280_humidity;BME280_pressure;Samples;Min_cycle;Max_cycle;Signal;HPM_P1;HPM_P2
2024/01/25 00:00:34;;;;;;;27.17;8.57;;;;;;;;;;4977925;28;20400;-79
2024/01/25 00:03:01;;;;;;;29.90;8.75;;;;;;;;;;4976841;28;20050;-79
2024/01/25 00:05:28;;;;;;;30.25;8.50;;;;;;;;;;4977707;28;20507;-79
2024/01/25 00:07:54;;;;;;;31.73;9.10;;;;;;;;;;4977055;28;20412;-79
2024/01/25 00:10:21;;;;;;;34.88;8.80;;;;;;;;;;4977054;28;20065;-79
2024/01/25 00:12:50;;;;;;;36.13;9.25;;;;;;;;;;4976991;28;20055;-79
2024/01/25 00:15:17;;;;;;;26.70;8.05;;;;;;;;;;4976533;28;20050;-79
2024/01/25 00:17:43;;;;;;;32.90;8.50;;;;;;;;;;4976381;28;20055;-78
2024/01/25 00:20:11;;;;;;;32.85;9.57;;;;;;;;;;4976810;28;20059;-79
2024/01/25 00:22:37;;;;;;;29.80;8.82;;;;;;;;;;4976206;28;20055;-79
2024/01/25 00:25:05;;;;;;;32.55;9.18;;;;;;;;;;4975666;28;20059;-79
2024/01/25 00:27:32;;;;;;;30.17;8.27;;;;;;;;;;4976574;28;20065;-79
2024/01/25 00:30:00;;;;;;;33.83;8.85;;;;;;;;;;4976547;28;20400;-79
2024/01/25 00:32:27;;;;;;;26.92;8.77;;;;;;;;;;4976570;28;20077;-79
2024/01/25 00:34:54;;;;;;;32.47;8.05;;;;;;;;;;4976343;28;20062;-79
2024/01/25 00:37:21;;;;;;;28.35;8.30;;;;;;;;;;4976475;28;20053;-79
2024/01/25 00:39:49;;;;;;;27.48;8.00;;;;;;;;;;4976345;28;20065;-79
2024/01/25 00:42:16;;;;;;;30.13;8.40;;;;;;;;;;4976692;28;20492;-78
2024/01/25 00:44:43;;;;;;;32.47;8.75;;;;;;;;;;4976159;28;20488;-79
2024/01/25 00:47:13;;;;;;;34.13;8.77;;;;;;;;;;4976401;28;20062;-79
2024/01/25 00:49:40;;;;;;;36.67;9.60;;;;;;;;;;4976213;28;20489;-79
2024/01/25 00:52:07;;;;;;;28.70;8.35;;;;;;;;;;4976219;28;20496;-79
2024/01/25 00:54:34;;;;;;;32.58;9.15;;;;;;;;;;4975697;28;20062;-78
2024/01/25 00:57:01;;;;;;;27.73;7.93;;;;;;;;;;4975925;28;20082;-79
2024/01/25 00:59:28;;;;;;;29.15;8.30;;;;;;;;;;4975612;28;20055;-79
2024/01/25 01:01:56;;;;;;;28.23;7.72;;;;;;;;;;4976091;28;20432;-79
2024/01/25 01:04:25;;;;;;;29.15;8.65;;;;;;;;;;4975525;28;20058;-79
2024/01/25 01:06:52;;;;;;;36.53;9.37;;;;;;;;;;4975972;28;20065;-79
2024/01/25 01:09:19;;;;;;;31.13;8.38;;;;;;;;;;4975948;28;20457;-79
2024/01/25 01:11:46;;;;;;;34.78;8.40;;;;;;;;;;4975750;28;20055;-79
2024/01/25 01:14:13;;;;;;;29.05;8.13;;;;;;;;;;4975578;28;20054;-79
2024/01/25 01:16:39;;;;;;;29.42;8.82;;;;;;;;;;4975634;28;20059;-79
2024/01/25 01:19:07;;;;;;;34.88;8.63;;;;;;;;;;4974977;28;20051;-79
2024/01/25 01:21:35;;;;;;;29.98;8.93;;;;;;;;;;4975449;28;20059;-79
2024/01/25 01:24:02;;;;;;;29.90;8.50;;;;;;;;;;4975329;28;20058;-79
2024/01/25 01:26:29;;;;;;;32.15;8.27;;;;;;;;;;4975562;28;20515;-79
2024/01/25 01:28:56;;;;;;;25.42;8.07;;;;;;;;;;4975625;28;20073;-79
2024/01/25 01:31:22;;;;;;;31.95;8.07;;;;;;;;;;4975280;28;20405;-79
2024/01/25 01:33:49;;;;;;;26.13;7.22;;;;;;;;;;4975000;28;20058;-78
2024/01/25 01:36:16;;;;;;;26.27;8.50;;;;;;;;;;4975197;28;20051;-79
2024/01/25 01:38:44;;;;;;;34.05;9.10;;;;;;;;;;4973237;28;20053;-79
2024/01/25 01:41:12;;;;;;;26.10;7.55;;;;;;;;;;4975766;28;20047;-79
2024/01/25 01:43:39;;;;;;;32.35;7.43;;;;;;;;;;4975244;28;20055;-79
2024/01/25 01:46:10;;;;;;;29.73;8.65;;;;;;;;;;4975317;28;20066;-79
2024/01/25 01:48:37;;;;;;;28.40;8.40;;;;;;;;;;4975113;28;20050;-80
2024/01/25 01:51:04;;;;;;;29.85;9.02;;;;;;;;;;4975125;28;20054;-79
2024/01/25 01:53:31;;;;;;;33.22;9.23;;;;;;;;;;4974846;28;20061;-79
2024/01/25 01:56:00;;;;;;;30.88;9.65;;;;;;;;;;4975219;28;20055;-79
2024/01/25 01:58:28;;;;;;;33.83;10.25;;;;;;;;;;4974803;28;20058;-79
2024/01/25 02:00:55;;;;;;;33.67;9.10;;;;;;;;;;4975051;28;20152;-77
2024/01/25 02:03:22;;;;;;;28.15;7.82;;;;;;;;;;4974926;28;20408;-78
2024/01/25 02:05:49;;;;;;;31.25;9.95;;;;;;;;;;4974708;28;20485;-77
2024/01/25 02:08:15;;;;;;;33.20;8.70;;;;;;;;;;4974364;28;20047;-77
2024/01/25 02:10:43;;;;;;;26.77;7.95;;;;;;;;;;4974731;28;20050;-77
2024/01/25 02:13:11;;;;;;;25.88;8.18;;;;;;;;;;4974700;28;20058;-77
2024/01/25 02:15:38;;;;;;;28.33;8.93;;;;;;;;;;4974743;28;20054;-77
2024/01/25 02:18:05;;;;;;;36.75;9.30;;;;;;;;;;4974505;28;20050;-77
2024/01/25 02:20:32;;;;;;;29.23;8.60;;;;;;;;;;4974588;28;20412;-77
2024/01/25 02:23:00;;;;;;;23.65;7.68;;;;;;;;;;4974484;28;20054;-77
2024/01/25 02:25:27;;;;;;;25.73;8.68;;;;;;;;;;4974582;28;20062;-77
2024/01/25 02:27:53;;;;;;;30.20;9.10;;;;;;;;;;4974348;28;20059;-77
2024/01/25 02:30:21;;;;;;;27.55;8.30;;;;;;;;;;4974418;28;20054;-76
2024/01/25 02:32:48;;;;;;;20.65;7.40;;;;;;;;;;4974357;28;20065;-79
2024/01/25 02:35:14;;;;;;;23.55;7.10;;;;;;;;;;4974420;28;20462;-78
2024/01/25 02:37:41;;;;;;;26.30;8.18;;;;;;;;;;4974437;28;20055;-77
2024/01/25 02:40:10;;;;;;;27.95;8.82;;;;;;;;;;4974361;28;20050;-77
2024/01/25 02:42:37;;;;;;;29.35;8.50;;;;;;;;;;4974254;28;20061;-77
2024/01/25 02:45:04;;;;;;;26.33;8.07;;;;;;;;;;4974538;28;20054;-77
2024/01/25 02:47:31;;;;;;;24.80;7.88;;;;;;;;;;4973489;28;20065;-77
2024/01/25 02:49:58;;;;;;;29.05;8.35;;;;;;;;;;4973896;28;20054;-78
2024/01/25 02:52:24;;;;;;;26.27;8.60;;;;;;;;;;4974182;28;20058;-78
2024/01/25 02:54:51;;;;;;;33.53;9.15;;;;;;;;;;4974687;28;20051;-78
2024/01/25 02:57:19;;;;;;;26.88;7.40;;;;;;;;;;4973649;28;20058;-77
2024/01/25 02:59:46;;;;;;;25.38;7.50;;;;;;;;;;4974274;28;20404;-77
2024/01/25 03:02:13;;;;;;;32.45;9.05;;;;;;;;;;4973968;28;20409;-77
2024/01/25 03:04:40;;;;;;;26.30;7.45;;;;;;;;;;4974208;28;20058;-78
2024/01/25 03:07:07;;;;;;;26.70;7.65;;;;;;;;;;4974158;28;20491;-77
2024/01/25 03:09:34;;;;;;;26.98;7.22;;;;;;;;;;4974033;28;20051;-77
2024/01/25 03:12:00;;;;;;;24.83;7.75;;;;;;;;;;4973900;28;20058;-78
2024/01/25 03:14:29;;;;;;;25.83;6.93;;;;;;;;;;4973931;28;20087;-77
2024/01/25 03:16:56;;;;;;;22.65;6.68;;;;;;;;;;4973968;28;20058;-77
2024/01/25 03:19:25;;;;;;;26.73;7.57;;;;;;;;;;4973868;28;20503;-77
2024/01/25 03:21:52;;;;;;;28.75;7.75;;;;;;;;;;4978123;28;20439;-77
2024/01/25 03:24:19;;;;;;;25.23;7.00;;;;;;;;;;4992714;28;20061;-77
2024/01/25 03:26:45;;;;;;;27.10;7.32;;;;;;;;;;4992762;28;20058;-77
2024/01/25 03:29:12;;;;;;;35.70;8.43;;;;;;;;;;4992923;28;20046;-77
2024/01/25 03:31:40;;;;;;;29.95;7.22;;;;;;;;;;4992776;28;20077;-77
2024/01/25 03:34:07;;;;;;;24.85;7.47;;;;;;;;;;4993117;28;20057;-77
2024/01/25 03:36:35;;;;;;;24.25;6.55;;;;;;;;;;4993003;28;20050;-77
2024/01/25 03:39:02;;;;;;;28.30;7.10;;;;;;;;;;4993826;28;20055;-78
2024/01/25 03:41:30;;;;;;;31.65;7.93;;;;;;;;;;4993874;28;20055;-77
2024/01/25 03:43:56;;;;;;;27.40;7.45;;;;;;;;;;4992507;28;20502;-77
2024/01/25 03:46:23;;;;;;;22.80;8.43;;;;;;;;;;4992747;28;20058;-77
2024/01/25 03:48:54;;;;;;;31.98;7.97;;;;;;;;;;4992681;28;20054;-77
2024/01/25 03:51:23;;;;;;;26.80;7.85;;;;;;;;;;4992919;28;20065;-78
2024/01/25 03:53:52;;;;;;;28.70;6.75;;;;;;;;;;4993070;28;20396;-78
2024/01/25 03:56:19;;;;;;;24.45;6.70;;;;;;;;;;4993109;28;20054;-78
2024/01/25 03:58:46;;;;;;;24.60;7.18;;;;;;;;;;4994424;28;20058;-77
2024/01/25 04:01:13;;;;;;;30.17;7.78;;;;;;;;;;4996783;28;20065;-77
2024/01/25 04:03:40;;;;;;;28.92;6.75;;;;;;;;;;4996455;28;20484;-78
2024/01/25 04:06:08;;;;;;;21.98;6.85;;;;;;;;;;4996705;28;20515;-77
2024/01/25 04:08:35;;;;;;;27.02;7.50;;;;;;;;;;4996482;28;20393;-77
2024/01/25 04:11:01;;;;;;;23.77;7.20;;;;;;;;;;4996369;28;20077;-77
2024/01/25 04:13:28;;;;;;;26.00;7.75;;;;;;;;;;4996170;28;20409;-77
2024/01/25 04:15:55;;;;;;;25.35;7.55;;;;;;;;;;4996517;28;20050;-78
2024/01/25 04:18:22;;;;;;;26.35;7.45;;;;;;;;;;4996539;28;20407;-78
2024/01/25 04:20:50;;;;;;;30.23;8.55;;;;;;;;;;4995724;28;20502;-77
2024/01/25 04:23:18;;;;;;;32.80;9.13;;;;;;;;;;4995387;28;20058;-78
2024/01/25 04:25:45;;;;;;;27.63;7.95;;;;;;;;;;4996319;28;20487;-78
2024/01/25 04:28:12;;;;;;;28.08;8.32;;;;;;;;;;4996075;28;20407;-77
2024/01/25 04:30:39;;;;;;;29.30;8.23;;;;;;;;;;4995941;28;20053;-77
2024/01/25 04:33:05;;;;;;;32.60;9.40;;;;;;;;;;4996149;28;20054;-78
2024/01/25 04:35:32;;;;;;;31.02;8.48;;;;;;;;;;4995841;28;20349;-78
2024/01/25 04:38:00;;;;;;;28.83;8.32;;;;;;;;;;4995554;28;20055;-78
2024/01/25 04:40:28;;;;;;;28.35;8.00;;;;;;;;;;4995543;28;20051;-77
2024/01/25 04:42:55;;;;;;;31.60;8.25;;;;;;;;;;4995799;28;20054;-77
2024/01/25 04:45:21;;;;;;;27.45;7.43;;;;;;;;;;4995438;28;20054;-77
2024/01/25 04:47:48;;;;;;;31.27;8.02;;;;;;;;;;4995711;28;20058;-77
2024/01/25 04:50:15;;;;;;;33.80;8.43;;;;;;;;;;4995317;28;20054;-77
2024/01/25 04:52:42;;;;;;;26.65;7.68;;;;;;;;;;4995217;28;20065;-77
2024/01/25 04:55:09;;;;;;;30.23;8.05;;;;;;;;;;4995555;28;20058;-77
2024/01/25 04:57:38;;;;;;;27.65;7.57;;;;;;;;;;4995448;28;20058;-77
2024/01/25 05:00:05;;;;;;;28.80;7.97;;;;;;;;;;4995227;28;20057;-77
2024/01/25 05:02:32;;;;;;;28.08;7.70;;;;;;;;;;4995260;28;20147;-77
2024/01/25 05:04:59;;;;;;;33.13;7.22;;;;;;;;;;4995429;28;20480;-77
2024/01/25 05:07:26;;;;;;;29.15;7.38;;;;;;;;;;4995374;28;20050;-77
2024/01/25 05:09:52;;;;;;;29.00;7.50;;;;;;;;;;4994539;28;20046;-77
2024/01/25 05:12:20;;;;;;;33.50;7.30;;;;;;;;;;4995193;28;20054;-79
2024/01/25 05:14:48;;;;;;;30.17;7.70;;;;;;;;;;4995172;28;20058;-78
2024/01/25 05:17:15;;;;;;;33.83;8.65;;;;;;;;;;4994831;28;20389;-77
2024/01/25 05:19:42;;;;;;;35.60;8.27;;;;;;;;;;4995171;28;20484;-77
2024/01/25 05:22:09;;;;;;;31.80;8.90;;;;;;;;;;4994795;28;20508;-77
2024/01/25 05:24:36;;;;;;;29.70;7.65;;;;;;;;;;4994645;28;20135;-77
2024/01/25 05:27:03;;;;;;;35.67;8.10;;;;;;;;;;4994898;28;20502;-77
2024/01/25 05:29:29;;;;;;;28.02;7.47;;;;;;;;;;4995062;28;20057;-77
2024/01/25 05:31:57;;;;;;;35.28;8.15;;;;;;;;;;4994392;28;20057;-77
2024/01/25 05:34:25;;;;;;;36.88;8.88;;;;;;;;;;4994651;28;20054;-77
2024/01/25 05:36:51;;;;;;;32.13;7.43;;;;;;;;;;4994392;28;20055;-77
2024/01/25 05:39:18;;;;;;;28.95;7.50;;;;;;;;;;4994547;28;20062;-78
2024/01/25 05:41:45;;;;;;;34.50;8.07;;;;;;;;;;4994508;28;20058;-78
2024/01/25 05:44:12;;;;;;;36.78;7.75;;;;;;;;;;4994249;28;20142;-78
2024/01/25 05:46:39;;;;;;;33.05;7.95;;;;;;;;;;4994323;28;20058;-78
2024/01/25 05:49:07;;;;;;;31.02;7.70;;;;;;;;;;4994587;28;20054;-78
2024/01/25 05:51:34;;;;;;;31.77;8.43;;;;;;;;;;4994750;28;20139;-78
2024/01/25 05:54:02;;;;;;;30.70;8.55;;;;;;;;;;4994356;28;20507;-78
2024/01/25 05:56:29;;;;;;;30.60;8.35;;;;;;;;;;4994459;28;20061;-78
2024/01/25 05:58:56;;;;;;;37.35;8.82;;;;;;;;;;4994061;28;20061;-78
2024/01/25 06:01:23;;;;;;;29.92;8.50;;;;;;;;;;4994832;28;20396;-78
2024/01/25 06:03:49;;;;;;;34.08;9.68;;;;;;;;;;4994400;28;20479;-78
2024/01/25 06:06:18;;;;;;;33.38;8.73;;;;;;;;;;4994502;28;20054;-78
2024/01/25 06:08:44;;;;;;;32.83;9.43;;;;;;;;;;4993618;28;20077;-78
2024/01/25 06:11:11;;;;;;;36.67;10.18;;;;;;;;;;4994398;28;20401;-78
2024/01/25 06:13:37;;;;;;;37.90;10.10;;;;;;;;;;4994153;28;20411;-78
2024/01/25 06:16:04;;;;;;;31.50;8.05;;;;;;;;;;4994549;28;20052;-78
2024/01/25 06:18:31;;;;;;;41.05;9.20;;;;;;;;;;4994162;28;20433;-78
2024/01/25 06:20:57;;;;;;;38.60;8.80;;;;;;;;;;4994135;28;20472;-78
2024/01/25 06:23:26;;;;;;;28.20;7.97;;;;;;;;;;4992769;28;20054;-78
2024/01/25 06:25:52;;;;;;;35.08;8.38;;;;;;;;;;4993998;28;20065;-78
2024/01/25 06:28:19;;;;;;;35.20;8.52;;;;;;;;;;4994084;28;20046;-78
2024/01/25 06:30:46;;;;;;;35.60;8.85;;;;;;;;;;4988873;28;20047;-78
2024/01/25 06:33:13;;;;;;;33.72;8.20;;;;;;;;;;4973873;28;20058;-79
2024/01/25 06:35:40;;;;;;;32.95;8.23;;;;;;;;;;4974304;28;20507;-78
2024/01/25 06:38:07;;;;;;;38.20;9.40;;;;;;;;;;4974018;28;20424;-78
2024/01/25 06:40:35;;;;;;;31.63;9.35;;;;;;;;;;4974773;28;20404;-78
2024/01/25 06:43:03;;;;;;;31.90;9.85;;;;;;;;;;4974644;28;20062;-78
2024/01/25 06:45:30;;;;;;;37.33;9.15;;;;;;;;;;4974221;28;20057;-79
2024/01/25 06:47:57;;;;;;;32.50;8.93;;;;;;;;;;4974486;28;20051;-79
2024/01/25 06:50:24;;;;;;;33.08;10.10;;;;;;;;;;4973502;28;20058;-79
2024/01/25 06:52:53;;;;;;;38.53;9.70;;;;;;;;;;4973548;28;20055;-78
2024/01/25 06:55:20;;;;;;;39.05;9.52;;;;;;;;;;4973818;28;20066;-78
2024/01/25 06:57:48;;;;;;;43.15;10.10;;;;;;;;;;4973964;28;20062;-78
2024/01/25 07:00:16;;;;;;;32.38;8.82;;;;;;;;;;4974326;28;20051;-78
2024/01/25 07:02:43;;;;;;;44.95;9.50;;;;;;;;;;4974063;28;20061;-78
2024/01/25 07:05:09;;;;;;;34.70;9.10;;;;;;;;;;4973773;28;20058;-78
2024/01/25 07:07:38;;;;;;;30.25;9.25;;;;;;;;;;4974208;28;20088;-78
2024/01/25 07:10:05;;;;;;;39.05;10.13;;;;;;;;;;4974263;28;20062;-78
2024/01/25 07:12:32;;;;;;;33.67;8.15;;;;;;;;;;4973879;28;20050;-79
2024/01/25 07:15:00;;;;;;;31.58;9.00;;;;;;;;;;4974110;28;20058;-78
2024/01/25 07:17:27;;;;;;;33.28;8.88;;;;;;;;;;4974390;28;20380;-78
2024/01/25 07:19:53;;;;;;;35.42;8.93;;;;;;;;;;4973778;28;20061;-78
2024/01/25 07:22:22;;;;;;;31.35;8.13;;;;;;;;;;4973107;28;20070;-78
2024/01/25 07:24:49;;;;;;;29.75;8.75;;;;;;;;;;4973561;28;20059;-79
2024/01/25 07:27:15;;;;;;;35.67;9.60;;;;;;;;;;4973977;28;20062;-78
2024/01/25 07:29:44;;;;;;;38.30;9.80;;;;;;;;;;4973973;28;20065;-78
2024/01/25 07:32:12;;;;;;;37.53;9.75;;;;;;;;;;4973894;28;20061;-78
2024/01/25 07:34:39;;;;;;;36.20;9.20;;;;;;;;;;4976303;28;20059;-78
2024/01/25 07:37:06;;;;;;;38.88;9.93;;;;;;;;;;4977170;28;20066;-78
2024/01/25 07:39:33;;;;;;;38.78;9.68;;;;;;;;;;4977578;28;20050;-78
2024/01/25 07:42:00;;;;;;;35.88;9.68;;;;;;;;;;4977491;28;20062;-79
2024/01/25 07:44:27;;;;;;;35.75;10.02;;;;;;;;;;4977218;28;20078;-79
2024/01/25 07:46:54;;;;;;;35.67;10.63;;;;;;;;;;4977503;28;20059;-78
2024/01/25 07:49:22;;;;;;;36.45;10.82;;;;;;;;;;4977338;28;20075;-78
2024/01/25 07:51:50;;;;;;;37.55;10.65;;;;;;;;;;4977409;28;20055;-78
2024/01/25 07:54:17;;;;;;;38.47;11.68;;;;;;;;;;4977301;28;20521;-79
2024/01/25 07:56:44;;;;;;;38.63;12.63;;;;;;;;;;4977277;28;20061;-79
2024/01/25 07:59:11;;;;;;;42.28;12.95;;;;;;;;;;4977215;28;20484;-78
2024/01/25 08:01:37;;;;;;;45.35;15.73;;;;;;;;;;4976712;28;20047;-78
2024/01/25 08:04:04;;;;;;;39.97;17.08;;;;;;;;;;4977234;28;20051;-78
2024/01/25 08:06:33;;;;;;;42.20;17.35;;;;;;;;;;4977217;28;20062;-78
2024/01/25 08:08:59;;;;;;;47.70;19.38;;;;;;;;;;4976981;28;20066;-78
2024/01/25 08:11:26;;;;;;;47.95;18.92;;;;;;;;;;4976613;28;20061;-78
2024/01/25 08:13:53;;;;;;;47.00;18.63;;;;;;;;;;4977174;28;20055;-79
2024/01/25 08:16:20;;;;;;;46.47;18.02;;;;;;;;;;4977315;28;20491;-78
2024/01/25 08:18:47;;;;;;;44.58;18.15;;;;;;;;;;4976668;28;20061;-78
2024/01/25 08:21:14;;;;;;;44.75;18.00;;;;;;;;;;4977095;28;20058;-78
2024/01/25 08:23:42;;;;;;;46.15;18.10;;;;;;;;;;4957572;28;20059;-79
2024/01/25 08:26:12;;;;;;;51.53;19.70;;;;;;;;;;4957621;28;20063;-79
2024/01/25 08:28:39;;;;;;;42.75;16.75;;;;;;;;;;4957456;29;20250;-79
2024/01/25 08:31:06;;;;;;;48.15;18.05;;;;;;;;;;4957636;28;20082;-79
2024/01/25 08:33:33;;;;;;;41.60;19.10;;;;;;;;;;4956936;29;20408;-79
2024/01/25 08:35:59;;;;;;;50.05;18.83;;;;;;;;;;4957144;29;20063;-79
2024/01/25 08:38:26;;;;;;;50.90;19.75;;;;;;;;;;4957439;29;20051;-79
2024/01/25 08:40:54;;;;;;;48.17;19.42;;;;;;;;;;4956741;29;20051;-78
2024/01/25 08:43:21;;;;;;;56.72;21.27;;;;;;;;;;4956651;29;20106;-79
2024/01/25 08:45:48;;;;;;;51.05;21.77;;;;;;;;;;4956271;28;20051;-79
2024/01/25 08:48:15;;;;;;;45.83;20.15;;;;;;;;;;4957325;29;20508;-79
2024/01/25 08:50:42;;;;;;;48.70;20.08;;;;;;;;;;4956884;29;20059;-78
2024/01/25 08:53:09;;;;;;;49.45;21.13;;;;;;;;;;4957325;29;20055;-79
2024/01/25 08:55:36;;;;;;;44.92;21.52;;;;;;;;;;4956861;29;20051;-79
2024/01/25 08:58:04;;;;;;;50.63;20.30;;;;;;;;;;4956507;29;20078;-79
2024/01/25 09:00:31;;;;;;;48.35;21.20;;;;;;;;;;4956793;28;20062;-78
2024/01/25 09:02:58;;;;;;;50.53;21.65;;;;;;;;;;4956548;29;20374;-78
2024/01/25 09:05:27;;;;;;;50.45;22.17;;;;;;;;;;4956190;29;20055;-79
2024/01/25 09:07:54;;;;;;;45.45;21.20;;;;;;;;;;4956533;29;20059;-78
2024/01/25 09:10:21;;;;;;;50.58;22.92;;;;;;;;;;4956425;29;20061;-78
2024/01/25 09:12:48;;;;;;;47.45;21.17;;;;;;;;;;4956467;29;20051;-79
2024/01/25 09:15:17;;;;;;;43.20;21.48;;;;;;;;;;4956688;29;20070;-79
2024/01/25 09:17:45;;;;;;;43.83;20.13;;;;;;;;;;4956316;29;20059;-78
2024/01/25 09:20:11;;;;;;;44.63;20.30;;;;;;;;;;4956317;29;20051;-79
2024/01/25 09:22:39;;;;;;;36.17;17.90;;;;;;;;;;4967089;28;20492;-79
2024/01/25 09:25:06;;;;;;;44.13;19.20;;;;;;;;;;4975316;28;20055;-79
2024/01/25 09:27:33;;;;;;;45.40;18.48;;;;;;;;;;4975550;28;20062;-79
2024/01/25 09:30:00;;;;;;;51.00;19.63;;;;;;;;;;4975510;28;20086;-79
2024/01/25 09:32:28;;;;;;;38.80;17.55;;;;;;;;;;4975403;28;20057;-79
2024/01/25 09:34:55;;;;;;;37.45;15.52;;;;;;;;;;4975448;28;20054;-79
2024/01/25 09:37:24;;;;;;;33.65;15.93;;;;;;;;;;4975274;28;20059;-79
2024/01/25 09:39:51;;;;;;;34.20;16.03;;;;;;;;;;4975270;28;20081;-78
2024/01/25 09:42:17;;;;;;;34.00;15.70;;;;;;;;;;4975225;28;20494;-78
2024/01/25 09:44:45;;;;;;;39.65;15.95;;;;;;;;;;4975204;28;20054;-79
2024/01/25 09:47:12;;;;;;;35.13;15.13;;;;;;;;;;4975155;28;20054;-78
2024/01/25 09:49:42;;;;;;;38.78;14.93;;;;;;;;;;4974961;28;20050;-79
2024/01/25 09:52:12;;;;;;;35.13;15.82;;;;;;;;;;4975683;28;20051;-78
2024/01/25 09:54:38;;;;;;;37.30;17.05;;;;;;;;;;4974994;28;20063;-79
2024/01/25 09:57:07;;;;;;;38.42;16.05;;;;;;;;;;4974612;28;20050;-79
2024/01/25 09:59:34;;;;;;;43.83;16.30;;;;;;;;;;4975121;28;20059;-79
2024/01/25 10:02:02;;;;;;;37.22;15.82;;;;;;;;;;4975035;28;20051;-79
2024/01/25 10:04:29;;;;;;;32.67;14.02;;;;;;;;;;4975322;28;20062;-79
2024/01/25 10:06:57;;;;;;;36.30;14.70;;;;;;;;;;4974920;28;20055;-79
2024/01/25 10:09:24;;;;;;;35.08;12.45;;;;;;;;;;4975170;28;20061;-79
2024/01/25 10:11:51;;;;;;;45.65;16.98;;;;;;;;;;4974419;28;20492;-79
2024/01/25 10:14:18;;;;;;;32.38;13.07;;;;;;;;;;4974463;28;20069;-80
2024/01/25 10:16:45;;;;;;;32.42;13.90;;;;;;;;;;4975008;28;20464;-78
2024/01/25 10:19:13;;;;;;;30.73;13.75;;;;;;;;;;4974314;28;20066;-79
2024/01/25 10:21:42;;;;;;;35.47;12.40;;;;;;;;;;4973055;28;20509;-78
2024/01/25 10:24:10;;;;;;;38.10;13.37;;;;;;;;;;4974123;28;20066;-77
2024/01/25 10:26:37;;;;;;;32.07;13.00;;;;;;;;;;4973362;28;20482;-77
2024/01/25 10:29:04;;;;;;;34.55;13.27;;;;;;;;;;4974627;28;20478;-79
2024/01/25 10:31:31;;;;;;;33.72;13.27;;;;;;;;;;4974214;28;20063;-78
2024/01/25 10:33:58;;;;;;;29.55;12.98;;;;;;;;;;4974591;28;20054;-78
2024/01/25 10:36:27;;;;;;;31.25;10.90;;;;;;;;;;4973992;28;20054;-77
2024/01/25 10:38:54;;;;;;;26.15;11.20;;;;;;;;;;4974379;28;20061;-79
2024/01/25 10:41:24;;;;;;;27.70;10.90;;;;;;;;;;4974913;28;20063;-78
2024/01/25 10:43:50;;;;;;;;;;;;;;;;;;4975027;28;20070;-77
2024/01/25 10:46:17;;;;;;;26.92;9.55;;;;;;;;;;4974562;28;19922;-78
2024/01/25 10:48:44;;;;;;;26.85;10.57;;;;;;;;;;4974272;28;20512;-77
2024/01/25 10:51:13;;;;;;;29.73;10.95;;;;;;;;;;4974901;28;20408;-79
2024/01/25 10:53:40;;;;;;;21.50;10.43;;;;;;;;;;4974344;28;20058;-79
2024/01/25 10:56:07;;;;;;;25.42;10.27;;;;;;;;;;4974657;28;20500;-78
2024/01/25 10:58:36;;;;;;;25.95;10.35;;;;;;;;;;4974272;28;20055;-79
2024/01/25 11:01:03;;;;;;;27.63;9.80;;;;;;;;;;4974662;28;20058;-79
2024/01/25 11:03:30;;;;;;;29.90;10.25;;;;;;;;;;4974215;28;20051;-79
2024/01/25 11:06:06;;;;;;;27.73;10.38;;;;;;;;;;4974635;28;20050;-79
2024/01/25 11:08:33;;;;;;;30.60;10.15;;;;;;;;;;4977067;28;20055;-80
2024/01/25 11:11:00;;;;;;;20.55;9.10;;;;;;;;;;4980942;28;20054;-79
2024/01/25 11:13:29;;;;;;;25.13;10.82;;;;;;;;;;4981727;28;20058;-79
2024/01/25 11:15:57;;;;;;;25.55;10.77;;;;;;;;;;4980531;28;20055;-79
2024/01/25 11:18:25;;;;;;;21.85;8.90;;;;;;;;;;4980478;28;20400;-79
2024/01/25 11:20:52;;;;;;;28.58;10.25;;;;;;;;;;4980641;28;20484;-79
2024/01/25 11:23:19;;;;;;;27.90;10.30;;;;;;;;;;4996828;28;20050;-79
2024/01/25 11:25:47;;;;;;;28.08;10.15;;;;;;;;;;4999227;28;20061;-79
2024/01/25 11:28:16;;;;;;;29.35;9.98;;;;;;;;;;4999717;28;20058;-79
2024/01/25 11:30:44;;;;;;;35.15;11.00;;;;;;;;;;4999530;28;20050;-79
2024/01/25 11:33:13;;;;;;;26.25;10.52;;;;;;;;;;4999892;28;20134;-79
2024/01/25 11:35:41;;;;;;;;;;;;;;;;;;5000186;28;20050;-78
2024/01/25 11:38:08;;;;;;;29.50;9.68;;;;;;;;;;4999711;28;19928;-79
2024/01/25 11:40:35;;;;;;;29.88;9.85;;;;;;;;;;4999474;28;20403;-79
2024/01/25 11:43:03;;;;;;;28.55;9.82;;;;;;;;;;4999051;28;20065;-79
2024/01/25 11:45:30;;;;;;;25.83;9.65;;;;;;;;;;4999151;28;20061;-79
2024/01/25 11:47:56;;;;;;;26.45;9.02;;;;;;;;;;4999695;28;20061;-78
2024/01/25 11:50:25;;;;;;;28.55;9.35;;;;;;;;;;4999902;28;20058;-79
2024/01/25 11:52:51;;;;;;;25.88;9.23;;;;;;;;;;4998938;28;20411;-79
2024/01/25 11:55:18;;;;;;;25.27;9.43;;;;;;;;;;4998894;28;20058;-80
2024/01/25 11:57:46;;;;;;;27.38;9.82;;;;;;;;;;4999507;28;20065;-79
2024/01/25 12:00:14;;;;;;;27.23;9.18;;;;;;;;;;4999287;28;20372;-79
2024/01/25 12:02:42;;;;;;;27.73;9.80;;;;;;;;;;4998954;28;20069;-79
2024/01/25 12:05:10;;;;;;;26.52;8.70;;;;;;;;;;4999285;28;20066;-79
2024/01/25 12:07:39;;;;;;;22.23;7.47;;;;;;;;;;4998974;28;20057;-79
2024/01/25 12:10:07;;;;;;;21.25;8.18;;;;;;;;;;4999606;28;20062;-79
2024/01/25 12:12:35;;;;;;;23.75;7.18;;;;;;;;;;4998873;28;20061;-78
2024/01/25 12:15:03;;;;;;;30.23;9.80;;;;;;;;;;4999238;28;20416;-79
2024/01/25 12:17:31;;;;;;;21.38;7.82;;;;;;;;;;4998984;28;20054;-79
2024/01/25 12:19:58;;;;;;;21.92;7.00;;;;;;;;;;4997676;28;20054;-79
2024/01/25 12:22:25;;;;;;;24.38;7.72;;;;;;;;;;4995547;28;20058;-79
2024/01/25 12:24:55;;;;;;;25.10;7.60;;;;;;;;;;4995980;28;20065;-79
2024/01/25 12:27:23;;;;;;;20.25;7.07;;;;;;;;;;4996571;28;20050;-79
2024/01/25 12:29:49;;;;;;;27.38;8.32;;;;;;;;;;4996319;28;20065;-79
2024/01/25 12:32:16;;;;;;;20.58;7.63;;;;;;;;;;4978465;28;20066;-79
2024/01/25 12:34:43;;;;;;;22.90;7.53;;;;;;;;;;4976662;28;20062;-80
2024/01/25 12:37:10;;;;;;;20.05;7.63;;;;;;;;;;4976296;28;20054;-79
2024/01/25 12:39:37;;;;;;;19.38;6.80;;;;;;;;;;4975974;28;20050;-79
2024/01/25 12:42:06;;;;;;;22.05;6.82;;;;;;;;;;4976365;28;20081;-79
2024/01/25 12:44:33;;;;;;;22.03;7.57;;;;;;;;;;4975945;28;20054;-79
2024/01/25 12:47:02;;;;;;;19.80;7.18;;;;;;;;;;4975823;28;20515;-79
2024/01/25 12:49:29;;;;;;;21.50;7.18;;;;;;;;;;4976376;28;20057;-79
2024/01/25 12:51:56;;;;;;;19.65;7.00;;;;;;;;;;4976492;28;20055;-79
2024/01/25 12:54:22;;;;;;;23.02;7.53;;;;;;;;;;4976567;28;20167;-79
2024/01/25 12:56:50;;;;;;;16.83;6.30;;;;;;;;;;4975962;28;20062;-79
2024/01/25 12:59:18;;;;;;;24.38;7.32;;;;;;;;;;4976285;28;20065;-79
2024/01/25 13:01:45;;;;;;;24.65;7.35;;;;;;;;;;4975469;28;20050;-79
2024/01/25 13:04:11;;;;;;;21.50;7.43;;;;;;;;;;4975667;28;20062;-79
2024/01/25 13:06:38;;;;;;;20.63;7.13;;;;;;;;;;4976256;28;20066;-79
2024/01/25 13:09:05;;;;;;;22.05;7.40;;;;;;;;;;4975870;28;20065;-79
2024/01/25 13:11:32;;;;;;;24.98;6.30;;;;;;;;;;4975066;28;20057;-79
2024/01/25 13:14:02;;;;;;;17.30;6.13;;;;;;;;;;4975722;28;20047;-79
2024/01/25 13:16:30;;;;;;;22.63;6.35;;;;;;;;;;4976177;28;20404;-79
2024/01/25 13:18:57;;;;;;;16.35;6.28;;;;;;;;;;4975368;28;20051;-79
2024/01/25 13:21:24;;;;;;;20.38;6.13;;;;;;;;;;4975809;28;20066;-79
2024/01/25 13:23:51;;;;;;;22.48;6.47;;;;;;;;;;4975588;28;20047;-79
2024/01/25 13:26:18;;;;;;;21.23;5.82;;;;;;;;;;4975968;28;20058;-79
2024/01/25 13:28:45;;;;;;;17.63;5.95;;;;;;;;;;4975521;28;20066;-79
2024/01/25 13:31:11;;;;;;;22.55;6.93;;;;;;;;;;4974475;28;20062;-79
2024/01/25 13:33:40;;;;;;;18.27;6.13;;;;;;;;;;4974938;28;20057;-79
2024/01/25 13:36:08;;;;;;;19.73;6.10;;;;;;;;;;4975577;28;20408;-79
2024/01/25 13:38:35;;;;;;;19.83;6.85;;;;;;;;;;4975590;28;20054;-78
2024/01/25 13:41:02;;;;;;;20.15;6.63;;;;;;;;;;4975239;28;20061;-79
2024/01/25 13:43:29;;;;;;;27.17;7.03;;;;;;;;;;4975853;28;20064;-79
2024/01/25 13:45:55;;;;;;;22.65;7.20;;;;;;;;;;4975348;28;20055;-79
2024/01/25 13:48:22;;;;;;;25.63;7.68;;;;;;;;;;4975144;28;20054;-79
2024/01/25 13:50:50;;;;;;;23.13;6.82;;;;;;;;;;4975653;28;20069;-80
2024/01/25 13:53:17;;;;;;;20.40;7.07;;;;;;;;;;4975018;28;20055;-79
2024/01/25 13:55:44;;;;;;;20.30;7.25;;;;;;;;;;4975203;28;20058;-80
2024/01/25 13:58:11;;;;;;;23.98;6.75;;;;;;;;;;4974980;28;20055;-80
2024/01/25 14:00:38;;;;;;;26.42;7.78;;;;;;;;;;4975045;28;20404;-79
2024/01/25 14:03:05;;;;;;;24.42;7.25;;;;;;;;;;4974528;28;20065;-80
2024/01/25 14:05:32;;;;;;;22.17;7.13;;;;;;;;;;4975360;28;20058;-80
2024/01/25 14:08:00;;;;;;;24.10;7.57;;;;;;;;;;4974520;28;20486;-80
2024/01/25 14:10:28;;;;;;;24.52;8.73;;;;;;;;;;4974999;28;20485;-79
2024/01/25 14:12:55;;;;;;;22.00;7.82;;;;;;;;;;4974912;28;20059;-79
2024/01/25 14:15:22;;;;;;;32.25;7.93;;;;;;;;;;4974977;28;20047;-79
2024/01/25 14:17:49;;;;;;;29.05;7.85;;;;;;;;;;4974801;28;20059;-79
2024/01/25 14:20:17;;;;;;;24.00;8.85;;;;;;;;;;4974882;28;20059;-79
2024/01/25 14:22:45;;;;;;;26.13;8.38;;;;;;;;;;4974417;28;20058;-79
2024/01/25 14:25:13;;;;;;;26.52;8.00;;;;;;;;;;4974406;28;20469;-79